Weather at Campo di Volo Chatelair

Public forecast

Using degrees Celsius for public forecast. Weather courtesy of forecast.io.

Closest aviation weather report (METAR) to Campo di Volo Chatelair

Closest report is Aosta Airport, 4.7 nm (8.7 km) W. Retrieved 2020/10/23 10:20 UTC (0 seconds ago):

LIMW 231020Z AUTO VRB01KT 9999 -RA FEW038 OVC045 11/11 Q1021

Closest aviation forecast (TAF) to Campo di Volo Chatelair

Closest forecast is Turin Airport, 33.1 nm (61.4 km) SSE. Retrieved 2020/10/23 06:23 UTC (4 hours ago):

TAF LIMF 230500Z 2306/2406 VRB05KT 4000 BR BKN030 TEMPO 2306/2310 RA BECMG 2320/2322 1200 BCFG TEMPO 2400/2406 0500 FG BKN005